createdAt,value
2019-04-01T00:01:00.107Z,68.10
2019-04-01T00:05:09.292Z,67.80
2019-04-01T00:09:17.991Z,67.80
2019-04-01T00:13:26.726Z,67.80
2019-04-01T00:17:36.935Z,67.70
2019-04-01T00:21:48.299Z,67.80
2019-04-01T00:25:57.468Z,67.90
2019-04-01T00:30:06.343Z,68.10
2019-04-01T00:34:15.083Z,68.50
2019-04-01T00:38:26.489Z,68.80
2019-04-01T00:42:36.891Z,69.10
2019-04-01T00:46:45.692Z,69.30
2019-04-01T00:50:57.483Z,69.70
2019-04-01T00:55:06.572Z,70.10
2019-04-01T00:59:15.445Z,70.50
2019-04-01T01:03:24.176Z,70.80
2019-04-01T01:07:32.935Z,71.30
2019-04-01T01:11:41.669Z,71.70
2019-04-01T01:15:50.503Z,72.00
2019-04-01T01:19:59.318Z,72.00
2019-04-01T01:24:08.050Z,72.50
2019-04-01T01:28:16.745Z,73.90
2019-04-01T01:32:25.495Z,73.40
2019-04-01T01:36:34.633Z,73.70
2019-04-01T01:40:43.411Z,74.00
2019-04-01T01:44:52.165Z,74.50
2019-04-01T01:49:01.322Z,74.90
2019-04-01T01:53:10.154Z,75.40
2019-04-01T01:57:19.012Z,75.90
2019-04-01T02:01:27.821Z,76.30
2019-04-01T02:05:36.855Z,76.60
2019-04-01T02:09:45.677Z,76.80
2019-04-01T02:13:54.429Z,76.90
2019-04-01T02:18:03.253Z,77.00
2019-04-01T02:22:12.577Z,77.20
2019-04-01T02:26:21.403Z,77.40
2019-04-01T02:30:30.183Z,77.50
2019-04-01T02:34:39.528Z,77.70
2019-04-01T02:38:48.343Z,77.70
2019-04-01T02:42:58.773Z,77.50
2019-04-01T02:47:07.450Z,77.60
2019-04-01T02:51:16.214Z,77.70
2019-04-01T02:55:24.950Z,78.30
2019-04-01T02:59:33.767Z,77.50
2019-04-01T03:03:42.449Z,77.40
2019-04-01T03:07:51.211Z,77.70
2019-04-01T03:11:59.962Z,77.90
2019-04-01T03:16:08.712Z,77.90
2019-04-01T03:20:17.415Z,78.00
2019-04-01T03:24:26.143Z,78.00
2019-04-01T03:28:34.914Z,78.10
2019-04-01T03:32:45.291Z,78.40
2019-04-01T03:36:54.050Z,78.70
2019-04-01T03:41:02.831Z,79.00
2019-04-01T03:45:11.649Z,79.10
2019-04-01T03:49:20.463Z,79.30
2019-04-01T03:53:29.212Z,79.30
2019-04-01T03:57:37.989Z,79.40
2019-04-01T04:01:46.750Z,80.30
2019-04-01T04:05:55.496Z,79.60
2019-04-01T04:10:06.083Z,79.60
2019-04-01T04:14:14.881Z,79.60
2019-04-01T04:18:23.765Z,79.60
2019-04-01T04:22:32.774Z,79.70
2019-04-01T04:26:41.570Z,79.90
2019-04-01T04:30:51.074Z,79.90
2019-04-01T04:34:59.815Z,80.00
2019-04-01T04:39:08.581Z,80.20
2019-04-01T04:43:17.355Z,80.30
2019-04-01T04:47:26.130Z,80.30
2019-04-01T04:51:35.669Z,80.40
2019-04-01T04:55:44.475Z,80.50
2019-04-01T04:59:53.202Z,80.50
2019-04-01T05:04:02.045Z,80.30
2019-04-01T05:08:10.812Z,79.60
2019-04-01T05:12:19.580Z,78.70
2019-04-01T05:16:28.483Z,77.70
2019-04-01T05:20:39.112Z,76.60
2019-04-01T05:24:48.332Z,75.10
2019-04-01T05:29:00.279Z,74.00
2019-04-01T05:33:12.120Z,73.10
2019-04-01T05:37:20.882Z,72.40
2019-04-01T05:41:30.029Z,70.80
2019-04-01T05:45:38.879Z,69.70
2019-04-01T05:49:47.809Z,68.90
2019-04-01T05:53:56.838Z,68.20
2019-04-01T05:58:05.525Z,68.70
2019-04-01T06:02:14.329Z,66.90
2019-04-01T06:06:23.739Z,66.20
2019-04-01T06:10:32.471Z,68.00
2019-04-01T06:14:41.259Z,71.10
2019-04-01T06:18:50.746Z,68.10
2019-04-01T06:22:59.754Z,66.00
2019-04-01T06:27:08.523Z,63.30
2019-04-01T06:31:17.276Z,61.30
2019-04-01T06:35:26.632Z,59.00
2019-04-01T06:39:36.134Z,58.00
2019-04-01T06:43:46.516Z,57.60
2019-04-01T06:47:56.609Z,58.00
2019-04-01T06:52:05.372Z,57.90
2019-04-01T06:56:14.177Z,56.60
2019-04-01T07:00:23.027Z,56.80
2019-04-01T07:04:31.784Z,56.10
2019-04-01T07:08:40.783Z,55.80
2019-04-01T07:12:49.660Z,56.20
2019-04-01T07:16:58.492Z,56.60
2019-04-01T07:21:07.876Z,56.30
2019-04-01T07:25:16.642Z,55.40
2019-04-01T07:29:25.571Z,55.50
2019-04-01T07:33:35.315Z,55.70
2019-04-01T07:37:44.196Z,55.70
2019-04-01T07:41:53.829Z,54.80
2019-04-01T07:46:08.133Z,54.90
2019-04-01T07:50:16.260Z,54.50
2019-04-01T07:54:25.124Z,54.30
2019-04-01T07:58:34.624Z,54.20
2019-04-01T08:02:43.396Z,52.30
2019-04-01T08:06:53.146Z,52.20
2019-04-01T08:11:01.901Z,52.30
2019-04-01T08:15:11.489Z,52.30
2019-04-01T08:19:21.263Z,52.40
2019-04-01T08:23:31.087Z,53.30
2019-04-01T08:27:39.888Z,52.30
2019-04-01T08:31:48.674Z,51.70
2019-04-01T08:35:58.947Z,52.80
2019-04-01T08:40:08.235Z,51.50
2019-04-01T08:44:17.327Z,51.50
2019-04-01T08:48:26.052Z,51.60
2019-04-01T08:52:34.887Z,50.80
2019-04-01T08:56:43.937Z,50.60
2019-04-01T09:00:56.267Z,48.90
2019-04-01T09:05:06.766Z,49.60
2019-04-01T09:09:15.508Z,50.70
2019-04-01T09:13:24.748Z,50.20
2019-04-01T09:17:33.509Z,49.50
2019-04-01T09:21:42.308Z,50.00
2019-04-01T09:25:51.947Z,48.10
2019-04-01T09:30:02.111Z,47.60
2019-04-01T09:34:10.859Z,44.70
2019-04-01T09:38:19.662Z,45.80
2019-04-01T09:42:28.450Z,41.50
2019-04-01T09:46:39.683Z,41.60
2019-04-01T09:50:49.736Z,39.70
2019-04-01T09:55:01.988Z,40.90
2019-04-01T09:59:10.865Z,39.30
2019-04-01T10:03:19.686Z,39.20
2019-04-01T10:07:28.377Z,39.20
2019-04-01T10:11:37.133Z,38.40
2019-04-01T10:15:46.228Z,38.30
2019-04-01T10:19:54.945Z,37.40
2019-04-01T10:24:03.708Z,37.20
2019-04-01T10:28:14.062Z,38.50
2019-04-01T10:32:22.915Z,39.80
2019-04-01T10:36:31.783Z,40.20
2019-04-01T10:40:40.563Z,39.80
2019-04-01T10:44:49.411Z,38.50
2019-04-01T10:48:58.233Z,38.70
2019-04-01T10:53:07.183Z,39.30
2019-04-01T10:57:15.990Z,38.30
2019-04-01T11:01:24.764Z,38.20
2019-04-01T11:05:33.751Z,38.20
2019-04-01T11:09:42.424Z,38.20
2019-04-01T11:13:51.995Z,39.00
2019-04-01T11:18:01.665Z,38.30
2019-04-01T11:22:10.438Z,38.10
2019-04-01T11:26:19.179Z,37.90
2019-04-01T11:30:28.023Z,39.30
2019-04-01T11:34:36.754Z,39.10
2019-04-01T11:38:45.483Z,37.50
2019-04-01T11:42:54.233Z,37.70
2019-04-01T11:47:02.990Z,37.80
2019-04-01T11:51:11.782Z,36.10
2019-04-01T11:55:20.544Z,35.60
2019-04-01T11:59:29.306Z,36.00
2019-04-01T12:03:38.047Z,34.70
2019-04-01T12:07:46.869Z,32.20
2019-04-01T12:11:55.636Z,32.20
2019-04-01T12:16:04.381Z,31.10
2019-04-01T12:20:13.707Z,31.80
2019-04-01T12:24:22.444Z,32.40
2019-04-01T12:28:31.269Z,37.10
2019-04-01T12:32:40.069Z,38.20
2019-04-01T12:36:49.294Z,38.70
2019-04-01T12:40:58.292Z,37.80
2019-04-01T12:45:07.665Z,37.60
2019-04-01T12:49:16.492Z,37.70
2019-04-01T12:53:25.232Z,37.50
2019-04-01T12:57:33.989Z,39.30
2019-04-01T13:01:42.891Z,38.10
2019-04-01T13:05:51.710Z,38.90
2019-04-01T13:10:00.587Z,39.90
2019-04-01T13:14:09.340Z,39.70
2019-04-01T13:18:18.178Z,39.10
2019-04-01T13:22:27.781Z,39.40
2019-04-01T13:26:36.526Z,39.30
2019-04-01T13:30:47.229Z,39.00
2019-04-01T13:34:56.023Z,39.90
2019-04-01T13:39:06.354Z,39.70
2019-04-01T13:43:16.922Z,38.70
2019-04-01T13:47:25.664Z,39.20
2019-04-01T13:51:34.444Z,39.30
2019-04-01T13:55:43.155Z,39.30
2019-04-01T13:59:52.145Z,39.40
2019-04-01T14:04:00.847Z,39.60
2019-04-01T14:08:09.561Z,38.60
2019-04-01T14:12:18.307Z,38.80
2019-04-01T14:16:27.139Z,38.30
2019-04-01T14:20:35.900Z,38.90
2019-04-01T14:24:45.378Z,38.20
2019-04-01T14:28:54.445Z,36.80
2019-04-01T14:33:03.479Z,37.70
2019-04-01T14:37:12.492Z,38.10
2019-04-01T14:41:21.270Z,37.80
2019-04-01T14:45:30.035Z,38.10
2019-04-01T14:49:38.787Z,35.80
2019-04-01T14:53:47.537Z,36.00
2019-04-01T14:57:56.323Z,35.30
2019-04-01T15:02:05.100Z,35.90
2019-04-01T15:06:13.915Z,36.10
2019-04-01T15:10:22.869Z,35.40
2019-04-01T15:14:31.637Z,35.00
2019-04-01T15:18:40.355Z,34.60
2019-04-01T15:22:49.117Z,34.20
2019-04-01T15:26:57.868Z,34.70
2019-04-01T15:31:06.695Z,34.60
2019-04-01T15:35:15.444Z,35.40
2019-04-01T15:39:24.199Z,35.30
2019-04-01T15:43:32.928Z,36.00
2019-04-01T15:47:41.684Z,36.30
2019-04-01T15:51:50.477Z,35.60
2019-04-01T15:55:59.532Z,35.50
2019-04-01T16:00:10.505Z,36.00
2019-04-01T16:04:19.290Z,35.70
2019-04-01T16:08:28.058Z,36.30
2019-04-01T16:12:36.808Z,36.90
2019-04-01T16:16:45.631Z,36.70
2019-04-01T16:20:55.194Z,37.30
2019-04-01T16:25:07.990Z,38.00
2019-04-01T16:29:16.867Z,37.90
2019-04-01T16:33:25.586Z,38.20
2019-04-01T16:37:34.356Z,38.50
2019-04-01T16:41:43.194Z,38.10
2019-04-01T16:45:51.901Z,38.30
2019-04-01T16:50:00.613Z,38.60
2019-04-01T16:54:09.347Z,39.00
2019-04-01T16:58:18.078Z,38.60
2019-04-01T17:02:26.868Z,39.00
2019-04-01T17:06:36.004Z,39.10
2019-04-01T17:10:44.770Z,39.70
2019-04-01T17:14:53.717Z,40.00
2019-04-01T17:19:02.510Z,40.40
2019-04-01T17:23:11.274Z,40.70
2019-04-01T17:27:20.094Z,41.10
2019-04-01T17:31:28.883Z,41.50
2019-04-01T17:35:37.603Z,42.10
2019-04-01T17:39:46.382Z,43.00
2019-04-01T17:43:55.143Z,43.70
2019-04-01T17:48:04.613Z,44.20
2019-04-01T17:52:13.889Z,44.40
2019-04-01T17:56:22.693Z,44.80
2019-04-01T18:00:33.111Z,45.10
2019-04-01T18:04:41.948Z,45.70
2019-04-01T18:08:50.676Z,46.20
2019-04-01T18:12:59.424Z,46.80
2019-04-01T18:17:08.169Z,47.30
2019-04-01T18:21:17.066Z,47.80
2019-04-01T18:25:25.826Z,48.30
2019-04-01T18:29:34.569Z,48.80
2019-04-01T18:33:55.699Z,49.20
2019-04-01T18:37:53.736Z,49.70
2019-04-01T18:42:03.088Z,50.20
2019-04-01T18:46:12.297Z,50.70
2019-04-01T18:50:21.035Z,51.10
2019-04-01T18:54:29.914Z,51.30
2019-04-01T18:58:38.697Z,51.30
2019-04-01T19:02:47.519Z,51.20
2019-04-01T19:06:56.348Z,51.20
2019-04-01T19:11:05.063Z,51.10
2019-04-01T19:15:13.962Z,50.90
2019-04-01T19:19:22.734Z,50.50
2019-04-01T19:23:31.542Z,49.80
2019-04-01T19:27:40.264Z,49.80
2019-04-01T19:31:51.231Z,49.60
2019-04-01T19:36:01.163Z,49.50
2019-04-01T19:40:10.471Z,49.20
2019-04-01T19:44:19.205Z,48.90
2019-04-01T19:48:28.236Z,48.50
2019-04-01T19:52:36.945Z,48.50
2019-04-01T19:56:45.681Z,48.50
2019-04-01T20:00:56.503Z,48.60
2019-04-01T20:05:07.016Z,48.90
2019-04-01T20:09:15.770Z,49.30
2019-04-01T20:13:24.491Z,49.60
2019-04-01T20:17:33.264Z,50.00
2019-04-01T20:21:42.078Z,50.20
2019-04-01T20:25:50.849Z,50.50
2019-04-01T20:30:00.447Z,50.90
2019-04-01T20:34:19.024Z,51.20
2019-04-01T20:38:20.052Z,51.50
2019-04-01T20:42:33.463Z,51.70
2019-04-01T20:46:41.018Z,52.00
2019-04-01T20:50:49.757Z,52.90
2019-04-01T20:54:58.440Z,52.60
2019-04-01T20:59:07.195Z,53.10
2019-04-01T21:03:16.006Z,53.30
2019-04-01T21:07:24.890Z,53.50
2019-04-01T21:11:33.608Z,53.80
2019-04-01T21:15:43.403Z,54.10
2019-04-01T21:19:52.601Z,54.30
2019-04-01T21:24:01.353Z,54.60
2019-04-01T21:28:28.798Z,55.50
2019-04-01T21:32:38.854Z,55.10
2019-04-01T21:36:49.910Z,55.30
2019-04-01T21:41:00.961Z,55.60
2019-04-01T21:45:12.250Z,56.00
2019-04-01T21:49:23.380Z,56.40
2019-04-01T21:53:32.123Z,56.70
2019-04-01T21:57:43.398Z,56.90
2019-04-01T22:01:54.455Z,56.90
2019-04-01T22:06:05.492Z,57.00
2019-04-01T22:10:32.807Z,57.30
2019-04-01T22:15:00.174Z,57.50
2019-04-01T22:19:27.880Z,57.90
2019-04-01T22:23:55.399Z,58.20
2019-04-01T22:28:23.077Z,58.50
2019-04-01T22:32:50.284Z,58.80
2019-04-01T22:37:27.024Z,59.30
2019-04-01T22:41:49.123Z,59.50
2019-04-01T22:46:18.155Z,59.90
2019-04-01T22:50:45.806Z,60.10
2019-04-01T22:55:13.145Z,60.30
2019-04-01T22:59:41.000Z,60.60
2019-04-01T23:04:08.125Z,61.00
2019-04-01T23:08:38.287Z,61.20
2019-04-01T23:13:08.409Z,61.30
2019-04-01T23:17:38.219Z,61.30
2019-04-01T23:22:06.008Z,61.50
2019-04-01T23:26:33.443Z,61.80
2019-04-01T23:31:01.173Z,62.20
2019-04-01T23:35:28.444Z,62.30
2019-04-01T23:39:59.226Z,62.60
2019-04-01T23:44:28.516Z,62.80
2019-04-01T23:48:56.006Z,63.20
2019-04-01T23:53:23.905Z,63.30
2019-04-01T23:57:51.546Z,63.60
